Latest Weather Observations for Dum In Mirrie

IDD60801

Issued at 7:31 pm CST Wednesday 28 September 2016 (issued every 30 minutes, with the page automatically refreshed every 10 minutes)

About weather observations | Map of weather stations | Latest weather observations for NT | Other Formats
Station Details ID: 014277 Name: DUM IN MIRRIE AIRSTRIP Lat: -12.63 Lon: 130.37 Height: 3.5 m
Data from the previous 72 hours. | See also: Recent months at Dum In Mirrie
Date/Time
CST
Temp
°C
App
Temp
°C
Dew
Point
°C
Rel
Hum
%
Delta-T
°C
Wind Press
QNH
hPa
Press
MSL
hPa
Rain since
9am
mm
Dir  Spd
km/h
Gust
km/h
Spd
kts
Gust
kts
28/07:30pm 29.6 33.4 22.8 67 4.6 SW 7 13 4 7 1008.4 1008.4 0.0
28/07:00pm 29.6 33.4 22.8 67 4.6 SW 7 15 4 8 1008.3 1008.3 0.0
28/06:30pm 29.8 33.7 22.5 65 5.0 SW 6 11 3 6 1008.1 1008.1 0.0
28/06:00pm 30.1 33.8 22.3 63 5.3 SW 6 13 3 7 1007.9 1007.9 0.0
28/05:30pm 30.4 34.1 22.3 62 5.5 WSW 6 9 3 5 1007.4 1007.4 0.0
28/05:00pm 31.7 35.6 23.0 60 6.0 WSW 7 11 4 6 1007.5 1007.5 0.0
28/04:30pm 31.1 34.8 23.2 63 5.4 WSW 9 17 5 9 1007.5 1007.5 0.0
28/04:00pm 31.6 35.3 23.2 61 5.8 W 9 17 5 9 1007.7 1007.7 0.0
28/03:30pm 32.0 35.8 24.1 63 5.5 W 11 19 6 10 1008.0 1008.0 0.0
28/03:00pm 31.7 35.2 23.5 62 5.7 W 11 17 6 9 1008.3 1008.3 0.0
28/02:30pm 31.9 35.7 23.4 60 5.9 WNW 9 17 5 9 1008.9 1008.9 0.0
28/02:00pm 31.9 35.3 23.4 60 5.9 W 11 19 6 10 1009.5 1009.5 0.0
28/01:30pm 32.6 36.4 24.1 61 5.9 WNW 11 17 6 9 1009.8 1009.8 0.0
28/01:00pm 32.3 35.9 23.8 61 5.9 WNW 11 17 6 9 1010.3 1010.3 0.0
28/12:30pm 32.3 35.9 23.0 58 6.4 WNW 9 15 5 8 1010.7 1010.7 0.0
28/12:00pm 32.3 36.1 23.5 59 6.1 WNW 9 15 5 8 1011.1 1011.1 0.0
28/11:30am 31.9 35.9 23.7 62 5.7 WNW 9 15 5 8 1011.3 1011.3 0.0
28/11:00am 31.7 35.4 23.2 60 5.9 WNW 9 17 5 9 1011.6 1011.6 0.0
28/10:30am 31.4 35.4 23.8 64 5.3 NW 9 15 5 8 1011.8 1011.8 0.0
28/10:00am 31.2 35.1 23.6 64 5.3 NW 9 15 5 8 1012.0 1012.0 0.0
28/09:30am 31.1 35.6 24.0 66 4.9 NNW 7 13 4 7 1012.0 1012.0 0.0
28/09:00am 30.6 35.1 24.0 68 4.6 NNW 7 13 4 7 1011.6 1011.6 0.0
28/08:30am 30.1 34.8 24.0 70 4.2 NW 6 11 3 6 1011.3 1011.3 0.0
28/08:00am 29.9 34.5 23.8 70 4.2 NNW 6 11 3 6 1010.8 1010.8 0.0
28/07:30am 28.8 34.6 24.6 78 2.9 NNW 2 4 1 2 1010.2 1010.2 0.0
28/07:00am 26.6 31.9 23.7 84 2.0 NW 2 4 1 2 1009.8 1009.8 0.0
28/06:30am 27.6 32.6 23.8 80 2.6 WNW 4 7 2 4 1009.3 1009.3 0.0
28/06:00am 27.7 33.1 23.9 80 2.6 WNW 2 4 1 2 1009.0 1009.0 0.0
28/05:30am 28.0 33.1 24.0 79 2.8 WNW 4 7 2 4 1008.6 1008.6 0.0
28/05:00am 28.1 32.8 23.9 78 2.9 W 6 9 3 5 1008.6 1008.6 0.0
28/04:30am 28.1 33.1 23.9 78 2.9 WNW 4 9 2 5 1008.4 1008.4 0.0
28/04:00am 28.3 33.0 23.9 77 3.0 W 6 9 3 5 1008.3 1008.3 0.0
28/03:30am 28.4 33.1 24.0 77 3.0 W 6 11 3 6 1008.5 1008.5 0.0
28/03:00am 28.5 33.2 23.9 76 3.2 W 6 9 3 5 1008.6 1008.6 0.0
28/02:30am 28.4 33.4 23.8 76 3.2 WNW 4 7 2 4 1008.7 1008.7 0.0
28/02:00am 28.4 32.8 23.5 75 3.4 W 6 9 3 5 1008.8 1008.8 0.0
28/01:30am 28.4 33.5 24.0 77 3.0 WNW 4 7 2 4 1009.2 1009.2 0.0
28/01:00am 28.6 33.8 24.2 77 3.1 WNW 4 7 2 4 1009.4 1009.4 0.0
28/12:30am 28.5 33.2 23.9 76 3.2 WNW 6 11 3 6 1009.6 1009.6 0.0
28/12:00am 28.4 33.4 23.8 76 3.2 WNW 4 9 2 5 1009.9 1009.9 0.0
 
Date/Time
CST
Temp
°C
App
Temp
°C
Dew
Point
°C
Rel
Hum
%
Delta-T
°C
Wind Press
QNH
hPa
Press
MSL
hPa
Rain since
9am
mm
Dir  Spd
km/h
Gust
km/h
Spd
kts
Gust
kts
27/11:30pm 28.6 33.6 23.9 75 3.2 WNW 4 7 2 4 1010.0 1010.0 0.0
27/11:00pm 28.6 33.5 23.7 75 3.4 WNW 4 6 2 3 1010.2 1010.2 0.0
27/10:30pm 28.8 33.8 23.9 75 3.4 WNW 4 9 2 5 1010.3 1010.3 0.0
27/10:00pm 28.9 33.5 23.8 74 3.5 W 6 9 3 5 1010.2 1010.2 0.0
27/09:30pm 28.9 34.0 24.0 75 3.4 W 4 9 2 5 1010.1 1010.1 0.0
27/09:00pm 29.1 33.8 24.0 74 3.5 WSW 6 13 3 7 1009.7 1009.7 0.0
27/08:30pm 29.2 33.7 23.9 73 3.7 W 7 15 4 8 1009.5 1009.5 0.0
27/08:00pm 29.3 34.0 24.0 73 3.7 W 6 13 3 7 1009.4 1009.4 0.0
27/07:30pm 29.4 33.9 24.0 72 3.7 W 7 15 4 8 1009.0 1009.0 0.0
27/07:00pm 29.6 34.7 24.0 72 3.9 WSW 4 9 2 5 1008.9 1008.9 0.0
27/06:30pm 29.8 34.3 23.7 70 4.2 W 6 13 3 7 1008.4 1008.4 0.0
27/06:00pm 30.5 34.5 23.7 67 4.7 W 9 15 5 8 1008.0 1008.0 0.0
27/05:30pm 31.0 35.2 24.1 66 4.8 W 9 17 5 9 1007.8 1007.8 0.0
27/05:00pm 31.4 36.0 24.8 68 4.6 W 9 19 5 10 1007.7 1007.7 0.0
27/04:30pm 31.7 35.6 24.3 65 5.2 WNW 11 17 6 9 1007.5 1007.5 0.0
27/04:00pm 31.9 36.2 24.2 63 5.4 WNW 9 17 5 9 1007.7 1007.7 0.0
27/03:30pm 31.9 36.2 24.2 63 5.4 WNW 9 17 5 9 1007.8 1007.8 0.0
27/03:00pm 32.4 36.8 24.4 62 5.6 WNW 9 17 5 9 1008.3 1008.3 0.0
27/02:30pm 31.9 36.0 24.0 63 5.5 WNW 9 17 5 9 1008.5 1008.5 0.0
27/02:00pm 31.6 35.4 24.0 64 5.3 W 11 17 6 9 1008.7 1008.7 0.0
27/01:30pm 32.4 36.8 24.4 62 5.6 W 9 15 5 8 1009.1 1009.1 0.0
27/01:00pm 31.9 36.4 24.0 63 5.5 WNW 7 13 4 7 1009.6 1009.6 0.0
27/12:30pm 32.1 36.0 23.6 60 5.9 WNW 9 15 5 8 1010.3 1010.3 0.0
27/12:00pm 31.9 35.7 23.4 60 5.9 WNW 9 15 5 8 1010.9 1010.9 0.0
27/11:30am 32.0 35.6 23.8 62 5.7 NW 11 17 6 9 1011.5 1011.5 0.0
27/11:00am 31.2 34.6 23.3 63 5.4 NW 11 17 6 9 1012.0 1012.0 0.0
27/10:30am 31.6 35.4 23.4 61 5.7 NNW 9 15 5 8 1012.2 1012.2 0.0
27/10:00am 31.5 35.6 23.9 64 5.3 NNW 9 15 5 8 1012.5 1012.5 0.0
27/09:30am 31.0 34.9 23.6 64 5.1 NNW 9 15 5 8 1012.2 1012.2 0.0
27/09:00am 30.7 34.8 23.9 67 4.7 N 9 15 5 8 1012.0 1012.0 0.0
27/08:30am 30.5 35.3 24.2 69 4.4 NNW 6 11 3 6 1011.8 1011.8 0.0
27/08:00am 29.4 35.0 24.9 77 3.2 NNW 4 7 2 4 1011.6 1011.6 0.0
27/07:30am 28.3 33.7 24.5 80 2.6 NW 4 9 2 5 1011.3 1011.3 0.0
27/07:00am 28.1 33.4 24.3 80 2.6 NW 4 7 2 4 1010.9 1010.9 0.0
27/06:30am 28.1 33.0 24.3 80 2.6 NW 6 7 3 4 1010.5 1010.5 0.0
27/06:00am 28.1 33.5 24.5 81 2.5 NW 4 9 2 5 1010.4 1010.4 0.0
27/05:30am 28.0 32.8 24.2 80 2.6 NNW 6 9 3 5 1010.0 1010.0 0.0
27/05:00am 28.1 33.0 24.3 80 2.6 NW 6 9 3 5 1009.7 1009.7 0.0
27/04:30am 28.0 33.3 24.4 81 2.5 NW 4 7 2 4 1009.4 1009.4 0.0
27/04:00am 27.9 33.2 24.3 81 2.5 NNW 4 7 2 4 1009.3 1009.3 0.0
27/03:30am 27.9 33.2 24.3 81 2.5 NNW 4 7 2 4 1009.0 1009.0 0.0
27/03:00am 28.1 33.2 24.1 79 2.8 NNW 4 9 2 5 1008.9 1008.9 0.0
27/02:30am 28.4 33.1 24.0 77 3.0 NNW 6 9 3 5 1009.0 1009.0 0.0
27/02:00am 28.6 33.3 23.9 75 3.2 NW 6 9 3 5 1009.3 1009.3 0.0
27/01:30am 28.7 33.8 24.0 76 3.3 WNW 4 11 2 6 1009.3 1009.3 0.0
27/01:00am 28.6 33.3 23.9 75 3.2 WNW 6 9 3 5 1009.6 1009.6 0.0
27/12:30am 28.6 33.6 23.9 75 3.2 WNW 4 9 2 5 1009.9 1009.9 0.0
27/12:00am 28.6 33.1 23.7 75 3.4 WNW 6 11 3 6 1010.1 1010.1 0.0
 
Date/Time
CST
Temp
°C
App
Temp
°C
Dew
Point
°C
Rel
Hum
%
Delta-T
°C
Wind Press
QNH
hPa
Press
MSL
hPa
Rain since
9am
mm
Dir  Spd
km/h
Gust
km/h
Spd
kts
Gust
kts
26/11:30pm 28.9 33.5 23.8 74 3.5 WNW 6 11 3 6 1010.4 1010.4 0.0
26/11:00pm 28.9 33.5 23.8 74 3.5 W 6 9 3 5 1010.5 1010.5 0.0
26/10:30pm 29.0 33.7 23.9 74 3.5 WNW 6 9 3 5 1010.6 1010.6 0.0
26/10:00pm 29.0 33.7 23.9 74 3.5 W 6 11 3 6 1010.5 1010.5 0.0
26/09:30pm 29.1 34.0 24.4 76 3.3 W 6 11 3 6 1010.3 1010.3 0.0
26/09:00pm 29.2 34.1 24.3 75 3.4 W 6 11 3 6 1010.1 1010.1 0.0
26/08:30pm 29.2 34.1 24.3 75 3.4 WNW 6 11 3 6 1009.8 1009.8 0.0
26/08:00pm 29.4 34.4 24.5 75 3.4 W 6 9 3 5 1009.6 1009.6 0.0
26/07:30pm 29.4 34.4 24.5 75 3.4 WNW 6 9 3 5 1009.3 1009.3 0.0
26/07:00pm 29.7 34.6 24.3 73 3.8 WNW 6 11 3 6 1009.0 1009.0 0.0
26/06:30pm 30.1 35.5 24.5 72 3.9 WNW 4 11 2 6 1008.7 1008.7 0.0
26/06:00pm 30.3 35.2 24.4 70 4.1 WNW 6 11 3 6 1008.2 1008.2 0.0
26/05:30pm 30.4 34.8 23.8 68 4.6 W 7 9 4 5 1007.8 1007.8 0.0
26/05:00pm 30.7 35.6 24.6 70 4.3 WNW 7 13 4 7 1007.6 1007.6 0.0
26/04:30pm 31.1 35.2 24.0 66 4.9 WNW 9 15 5 8 1007.4 1007.4 0.0
26/04:00pm 32.7 37.6 24.7 62 5.6 W 7 17 4 9 1007.3 1007.3 0.0
26/03:30pm 32.6 37.1 25.2 65 5.2 WNW 11 19 6 10 1007.3 1007.3 0.0
26/03:00pm 32.5 37.1 25.3 66 5.1 WNW 11 19 6 10 1007.6 1007.6 0.0
26/02:30pm 32.5 36.7 24.8 64 5.4 WNW 11 20 6 11 1007.6 1007.6 0.0
26/02:00pm 32.7 37.3 24.7 62 5.6 W 9 17 5 9 1008.1 1008.1 0.0
26/01:30pm 32.6 36.9 24.9 64 5.4 W 11 17 6 9 1008.5 1008.5 0.0
26/01:00pm 32.1 36.4 24.9 65 5.1 W 11 17 6 9 1009.0 1009.0 0.0
26/12:30pm 32.0 36.6 24.8 65 5.1 WNW 9 15 5 8 1009.4 1009.4 0.0
26/12:00pm 31.5 36.2 24.9 68 4.6 WNW 9 17 5 9 1009.8 1009.8 0.0
26/11:30am 32.3 37.4 25.6 67 4.8 WNW 9 15 5 8 1010.1 1010.1 0.0
26/11:00am 31.1 35.8 25.0 70 4.3 WNW 9 13 5 7 1010.6 1010.6 0.0
26/10:30am 31.2 36.7 25.3 71 4.2 WNW 6 9 3 5 1010.8 1010.8 0.0
26/10:00am 31.0 36.1 24.9 70 4.3 WSW 7 11 4 6 1010.8 1010.8 0.0
26/09:30am 30.8 36.1 24.9 71 4.1 W 6 9 3 5 1010.8 1010.8 0.0
26/09:00am 30.3 36.4 25.1 73 3.7 WNW 2 6 1 3 1010.9 1010.9 0.0
26/08:30am 30.1 35.6 24.7 73 3.8 WNW 4 6 2 3 1010.6 1010.6 0.0
26/08:00am 30.3 36.8 25.1 73 3.7 CALM 0 6 0 3 1010.4 1010.4 0.0
26/07:30am 29.6 35.7 25.1 77 3.2 WSW 2 6 1 3 1009.8 1009.8 0.0
26/07:00am 28.6 34.3 25.0 81 2.5 WNW 4 6 2 3 1009.2 1009.2 0.0
26/06:30am 28.6 34.2 24.8 80 2.7 WNW 4 7 2 4 1008.5 1008.5 0.0
26/06:00am 28.6 33.7 24.6 79 2.8 WNW 6 9 3 5 1008.2 1008.2 0.0
26/05:30am 28.5 34.5 24.9 81 2.5 WNW 2 6 1 3 1007.9 1007.9 0.0
26/05:00am 28.4 33.9 24.6 80 2.6 WNW 4 9 2 5 1007.5 1007.5 0.0
26/04:30am 28.5 34.0 24.7 80 2.7 NW 4 7 2 4 1007.4 1007.4 0.0
26/04:00am 28.4 33.3 24.4 79 2.8 NW 6 9 3 5 1007.3 1007.3 0.0
26/03:30am 28.4 33.5 24.6 80 2.7 WNW 6 11 3 6 1007.4 1007.4 0.0
26/03:00am 28.2 33.4 24.2 79 2.8 NW 4 7 2 4 1007.8 1007.8 0.0
26/02:30am 28.5 33.5 24.5 79 2.8 NW 6 9 3 5 1007.9 1007.9 0.0
26/02:00am 28.5 33.4 24.3 78 2.9 WNW 6 9 3 5 1008.2 1008.2 0.0
26/01:30am 28.6 33.4 24.2 77 3.1 WNW 6 11 3 6 1008.4 1008.4 0.0
26/01:00am 28.8 33.6 24.1 76 3.3 W 6 11 3 6 1008.8 1008.8 0.0
26/12:30am 29.0 33.9 24.3 76 3.3 W 6 13 3 7 1009.0 1009.0 0.0
26/12:00am 29.0 33.6 24.1 75 3.4 W 7 15 4 8 1009.5 1009.5 0.0
 
Date/Time
CST
Temp
°C
App
Temp
°C
Dew
Point
°C
Rel
Hum
%
Delta-T
°C
Wind Press
QNH
hPa
Press
MSL
hPa
Rain since
9am
mm
Dir  Spd
km/h
Gust
km/h
Spd
kts
Gust
kts
25/11:30pm 28.9 33.0 24.0 75 3.4 W 9 19 5 10 1009.6 1009.6 0.0
25/11:00pm 29.0 33.3 23.7 73 3.7 WNW 7 15 4 8 1009.8 1009.8 0.0
25/10:30pm 29.1 33.3 23.5 72 3.9 W 7 15 4 8 1009.9 1009.9 0.0
25/10:00pm 29.1 32.9 23.5 72 3.9 W 9 13 5 7 1009.7 1009.7 0.0
25/09:30pm 29.2 33.4 23.4 71 4.0 WNW 7 17 4 9 1009.5 1009.5 0.0
25/09:00pm 29.1 32.9 22.8 69 4.3 W 7 13 4 7 1009.2 1009.2 0.0
25/08:30pm 29.2 33.0 22.7 68 4.4 W 7 13 4 7 1008.9 1008.9 0.0
25/08:00pm 29.4 32.9 22.9 68 4.4 W 9 15 5 8 1008.4 1008.4 0.0

Other Formats:

Comma delimited format used in spreadsheet applications
http://www.bom.gov.au/fwo/IDD60801/IDD60801.94116.axf

JavaScript Object Notation format (JSON) in row-major order
http://www.bom.gov.au/fwo/IDD60801/IDD60801.94116.json